sensor_id;sensor_type;location;lat;lon;timestamp;P1;durP1;ratioP1;P2;durP2;ratioP2
26822;SDS011;14852;51.910;8.878;2024-01-07T00:02:16;9.55;;;7.47;;
26822;SDS011;14852;51.910;8.878;2024-01-07T00:04:43;11.10;;;8.40;;
26822;SDS011;14852;51.910;8.878;2024-01-07T00:07:09;12.25;;;8.02;;
26822;SDS011;14852;51.910;8.878;2024-01-07T00:09:35;10.68;;;7.55;;
26822;SDS011;14852;51.910;8.878;2024-01-07T00:12:00;11.48;;;8.80;;
26822;SDS011;14852;51.910;8.878;2024-01-07T00:14:26;9.48;;;7.40;;
26822;SDS011;14852;51.910;8.878;2024-01-07T00:16:52;12.88;;;8.32;;
26822;SDS011;14852;51.910;8.878;2024-01-07T00:23:20;9.02;;;7.40;;
26822;SDS011;14852;51.910;8.878;2024-01-07T00:25:49;10.55;;;6.75;;
26822;SDS011;14852;51.910;8.878;2024-01-07T00:28:15;10.52;;;7.55;;
26822;SDS011;14852;51.910;8.878;2024-01-07T00:30:40;8.70;;;6.72;;
26822;SDS011;14852;51.910;8.878;2024-01-07T00:39:26;8.00;;;5.72;;
26822;SDS011;14852;51.910;8.878;2024-01-07T00:41:52;7.97;;;5.60;;
26822;SDS011;14852;51.910;8.878;2024-01-07T00:44:17;7.03;;;5.65;;
26822;SDS011;14852;51.910;8.878;2024-01-07T00:46:44;9.02;;;6.30;;
26822;SDS011;14852;51.910;8.878;2024-01-07T00:49:09;8.63;;;6.32;;
26822;SDS011;14852;51.910;8.878;2024-01-07T00:51:35;9.63;;;6.40;;
26822;SDS011;14852;51.910;8.878;2024-01-07T00:54:01;8.15;;;6.32;;
26822;SDS011;14852;51.910;8.878;2024-01-07T00:56:27;7.85;;;5.95;;
26822;SDS011;14852;51.910;8.878;2024-01-07T00:58:53;8.60;;;5.70;;
26822;SDS011;14852;51.910;8.878;2024-01-07T01:01:19;8.85;;;6.32;;
26822;SDS011;14852;51.910;8.878;2024-01-07T01:03:44;9.65;;;7.50;;
26822;SDS011;14852;51.910;8.878;2024-01-07T01:23:21;8.57;;;5.60;;
26822;SDS011;14852;51.910;8.878;2024-01-07T01:25:47;9.05;;;6.32;;
26822;SDS011;14852;51.910;8.878;2024-01-07T01:31:55;8.95;;;6.28;;
26822;SDS011;14852;51.910;8.878;2024-01-07T01:34:22;8.52;;;6.50;;
26822;SDS011;14852;51.910;8.878;2024-01-07T01:36:48;8.88;;;6.70;;
26822;SDS011;14852;51.910;8.878;2024-01-07T01:39:13;7.03;;;5.65;;
26822;SDS011;14852;51.910;8.878;2024-01-07T01:41:39;12.57;;;6.72;;
26822;SDS011;14852;51.910;8.878;2024-01-07T01:51:20;8.23;;;5.90;;
26822;SDS011;14852;51.910;8.878;2024-01-07T01:57:35;10.45;;;6.93;;
26822;SDS011;14852;51.910;8.878;2024-01-07T02:00:05;8.82;;;6.43;;
26822;SDS011;14852;51.910;8.878;2024-01-07T02:02:31;12.43;;;7.55;;
26822;SDS011;14852;51.910;8.878;2024-01-07T02:08:46;6.53;;;5.15;;
26822;SDS011;14852;51.910;8.878;2024-01-07T02:11:14;8.95;;;5.93;;
26822;SDS011;14852;51.910;8.878;2024-01-07T02:13:41;8.57;;;6.65;;
26822;SDS011;14852;51.910;8.878;2024-01-07T02:16:07;7.43;;;5.68;;
26822;SDS011;14852;51.910;8.878;2024-01-07T02:18:32;9.90;;;6.78;;
26822;SDS011;14852;51.910;8.878;2024-01-07T02:20:58;8.88;;;5.97;;
26822;SDS011;14852;51.910;8.878;2024-01-07T02:23:24;9.32;;;6.15;;
26822;SDS011;14852;51.910;8.878;2024-01-07T02:25:50;9.18;;;6.68;;
26822;SDS011;14852;51.910;8.878;2024-01-07T02:28:16;9.10;;;7.38;;
26822;SDS011;14852;51.910;8.878;2024-01-07T02:30:42;9.48;;;6.72;;
26822;SDS011;14852;51.910;8.878;2024-01-07T02:33:08;8.27;;;6.18;;
26822;SDS011;14852;51.910;8.878;2024-01-07T02:35:34;9.88;;;6.47;;
26822;SDS011;14852;51.910;8.878;2024-01-07T02:38:00;10.02;;;6.95;;
26822;SDS011;14852;51.910;8.878;2024-01-07T02:40:26;11.07;;;7.43;;
26822;SDS011;14852;51.910;8.878;2024-01-07T02:42:52;9.73;;;6.53;;
26822;SDS011;14852;51.910;8.878;2024-01-07T02:45:18;11.60;;;6.85;;
26822;SDS011;14852;51.910;8.878;2024-01-07T02:47:44;10.50;;;7.25;;
26822;SDS011;14852;51.910;8.878;2024-01-07T02:50:09;10.32;;;7.93;;
26822;SDS011;14852;51.910;8.878;2024-01-07T02:56:39;11.52;;;7.78;;
26822;SDS011;14852;51.910;8.878;2024-01-07T02:59:05;8.90;;;6.47;;
26822;SDS011;14852;51.910;8.878;2024-01-07T03:32:44;10.38;;;7.97;;
26822;SDS011;14852;51.910;8.878;2024-01-07T03:35:09;10.23;;;7.10;;
26822;SDS011;14852;51.910;8.878;2024-01-07T03:41:23;9.63;;;7.03;;
26822;SDS011;14852;51.910;8.878;2024-01-07T03:43:49;10.95;;;8.02;;
26822;SDS011;14852;51.910;8.878;2024-01-07T03:46:16;10.05;;;7.80;;
26822;SDS011;14852;51.910;8.878;2024-01-07T03:48:42;10.43;;;7.35;;
26822;SDS011;14852;51.910;8.878;2024-01-07T03:51:08;10.02;;;7.28;;
26822;SDS011;14852;51.910;8.878;2024-01-07T03:53:34;10.73;;;7.18;;
26822;SDS011;14852;51.910;8.878;2024-01-07T03:56:00;9.02;;;7.45;;
26822;SDS011;14852;51.910;8.878;2024-01-07T03:58:25;11.13;;;6.90;;
26822;SDS011;14852;51.910;8.878;2024-01-07T04:00:51;7.20;;;5.68;;
26822;SDS011;14852;51.910;8.878;2024-01-07T04:06:51;7.97;;;6.07;;
26822;SDS011;14852;51.910;8.878;2024-01-07T04:09:17;8.05;;;6.15;;
26822;SDS011;14852;51.910;8.878;2024-01-07T04:11:43;8.85;;;6.60;;
26822;SDS011;14852;51.910;8.878;2024-01-07T04:14:09;10.27;;;5.95;;
26822;SDS011;14852;51.910;8.878;2024-01-07T04:16:35;9.65;;;6.45;;
26822;SDS011;14852;51.910;8.878;2024-01-07T04:19:00;10.02;;;6.30;;
26822;SDS011;14852;51.910;8.878;2024-01-07T04:24:03;8.23;;;5.45;;
26822;SDS011;14852;51.910;8.878;2024-01-07T04:26:29;8.30;;;5.93;;
26822;SDS011;14852;51.910;8.878;2024-01-07T04:28:55;6.60;;;5.15;;
26822;SDS011;14852;51.910;8.878;2024-01-07T04:31:21;6.90;;;5.00;;
26822;SDS011;14852;51.910;8.878;2024-01-07T04:33:46;8.75;;;5.57;;
26822;SDS011;14852;51.910;8.878;2024-01-07T04:36:12;6.95;;;5.55;;
26822;SDS011;14852;51.910;8.878;2024-01-07T04:38:38;8.50;;;6.57;;
26822;SDS011;14852;51.910;8.878;2024-01-07T04:41:04;7.93;;;5.07;;
26822;SDS011;14852;51.910;8.878;2024-01-07T04:43:32;7.07;;;6.10;;
26822;SDS011;14852;51.910;8.878;2024-01-07T04:45:59;8.23;;;5.55;;
26822;SDS011;14852;51.910;8.878;2024-01-07T04:48:25;7.07;;;5.22;;
26822;SDS011;14852;51.910;8.878;2024-01-07T04:50:50;8.45;;;5.45;;
26822;SDS011;14852;51.910;8.878;2024-01-07T04:53:16;6.93;;;5.65;;
26822;SDS011;14852;51.910;8.878;2024-01-07T04:55:42;7.78;;;5.28;;
26822;SDS011;14852;51.910;8.878;2024-01-07T04:58:07;6.35;;;5.00;;
26822;SDS011;14852;51.910;8.878;2024-01-07T05:00:33;9.63;;;6.30;;
26822;SDS011;14852;51.910;8.878;2024-01-07T05:02:59;8.02;;;5.55;;
26822;SDS011;14852;51.910;8.878;2024-01-07T05:05:25;7.72;;;5.20;;
26822;SDS011;14852;51.910;8.878;2024-01-07T05:07:50;9.02;;;6.50;;
26822;SDS011;14852;51.910;8.878;2024-01-07T05:10:16;10.75;;;7.35;;
26822;SDS011;14852;51.910;8.878;2024-01-07T05:12:42;10.48;;;5.85;;
26822;SDS011;14852;51.910;8.878;2024-01-07T05:15:08;9.43;;;7.53;;
26822;SDS011;14852;51.910;8.878;2024-01-07T05:17:34;7.53;;;5.82;;
26822;SDS011;14852;51.910;8.878;2024-01-07T05:20:00;7.72;;;6.30;;
26822;SDS011;14852;51.910;8.878;2024-01-07T05:22:26;8.15;;;5.75;;
26822;SDS011;14852;51.910;8.878;2024-01-07T05:24:51;9.95;;;6.30;;
26822;SDS011;14852;51.910;8.878;2024-01-07T05:27:17;8.38;;;6.93;;
26822;SDS011;14852;51.910;8.878;2024-01-07T05:29:46;8.50;;;6.18;;
26822;SDS011;14852;51.910;8.878;2024-01-07T05:32:14;9.05;;;6.10;;
26822;SDS011;14852;51.910;8.878;2024-01-07T05:34:40;8.50;;;6.57;;
26822;SDS011;14852;51.910;8.878;2024-01-07T05:37:06;8.23;;;6.32;;
26822;SDS011;14852;51.910;8.878;2024-01-07T05:39:32;8.38;;;6.13;;
26822;SDS011;14852;51.910;8.878;2024-01-07T05:41:58;9.60;;;6.10;;
26822;SDS011;14852;51.910;8.878;2024-01-07T05:44:23;9.88;;;5.70;;
26822;SDS011;14852;51.910;8.878;2024-01-07T05:46:49;9.77;;;6.57;;
26822;SDS011;14852;51.910;8.878;2024-01-07T05:49:15;8.07;;;5.72;;
26822;SDS011;14852;51.910;8.878;2024-01-07T05:51:41;7.25;;;5.90;;
26822;SDS011;14852;51.910;8.878;2024-01-07T05:54:06;7.43;;;5.65;;
26822;SDS011;14852;51.910;8.878;2024-01-07T05:56:37;9.13;;;6.72;;
26822;SDS011;14852;51.910;8.878;2024-01-07T05:59:05;7.60;;;5.95;;
26822;SDS011;14852;51.910;8.878;2024-01-07T06:01:31;11.43;;;6.15;;
26822;SDS011;14852;51.910;8.878;2024-01-07T06:03:57;6.75;;;5.45;;
26822;SDS011;14852;51.910;8.878;2024-01-07T06:06:23;7.30;;;5.32;;
26822;SDS011;14852;51.910;8.878;2024-01-07T06:08:49;8.15;;;6.53;;
26822;SDS011;14852;51.910;8.878;2024-01-07T06:11:14;8.70;;;5.97;;
26822;SDS011;14852;51.910;8.878;2024-01-07T06:13:45;6.28;;;5.25;;
26822;SDS011;14852;51.910;8.878;2024-01-07T06:16:11;6.53;;;5.22;;
26822;SDS011;14852;51.910;8.878;2024-01-07T06:18:36;9.57;;;6.72;;
26822;SDS011;14852;51.910;8.878;2024-01-07T06:21:02;8.40;;;6.05;;
26822;SDS011;14852;51.910;8.878;2024-01-07T06:23:28;7.80;;;5.50;;
26822;SDS011;14852;51.910;8.878;2024-01-07T06:25:54;8.93;;;6.00;;
26822;SDS011;14852;51.910;8.878;2024-01-07T06:28:20;6.40;;;4.80;;
26822;SDS011;14852;51.910;8.878;2024-01-07T06:30:46;7.22;;;5.63;;
26822;SDS011;14852;51.910;8.878;2024-01-07T06:33:11;7.32;;;4.88;;
26822;SDS011;14852;51.910;8.878;2024-01-07T06:35:38;8.15;;;4.78;;
26822;SDS011;14852;51.910;8.878;2024-01-07T06:38:03;6.30;;;4.32;;
26822;SDS011;14852;51.910;8.878;2024-01-07T06:40:29;6.75;;;4.32;;
26822;SDS011;14852;51.910;8.878;2024-01-07T06:42:55;9.23;;;4.47;;
26822;SDS011;14852;51.910;8.878;2024-01-07T06:45:21;5.55;;;4.22;;
26822;SDS011;14852;51.910;8.878;2024-01-07T06:47:47;6.07;;;4.65;;
26822;SDS011;14852;51.910;8.878;2024-01-07T06:50:13;4.32;;;3.83;;
26822;SDS011;14852;51.910;8.878;2024-01-07T06:52:38;7.07;;;4.50;;
26822;SDS011;14852;51.910;8.878;2024-01-07T06:55:05;5.97;;;3.50;;
26822;SDS011;14852;51.910;8.878;2024-01-07T06:57:32;4.90;;;3.85;;
26822;SDS011;14852;51.910;8.878;2024-01-07T06:59:57;6.82;;;4.35;;
26822;SDS011;14852;51.910;8.878;2024-01-07T07:02:23;4.57;;;3.40;;
26822;SDS011;14852;51.910;8.878;2024-01-07T07:04:49;5.90;;;3.58;;
26822;SDS011;14852;51.910;8.878;2024-01-07T07:07:16;8.93;;;4.05;;
26822;SDS011;14852;51.910;8.878;2024-01-07T07:09:42;6.38;;;4.22;;
26822;SDS011;14852;51.910;8.878;2024-01-07T07:12:08;5.47;;;3.70;;
26822;SDS011;14852;51.910;8.878;2024-01-07T07:14:34;5.80;;;4.03;;
26822;SDS011;14852;51.910;8.878;2024-01-07T07:16:59;6.65;;;4.28;;
26822;SDS011;14852;51.910;8.878;2024-01-07T07:19:25;7.63;;;4.10;;
26822;SDS011;14852;51.910;8.878;2024-01-07T07:21:51;5.57;;;3.95;;
26822;SDS011;14852;51.910;8.878;2024-01-07T07:24:17;5.70;;;3.70;;
26822;SDS011;14852;51.910;8.878;2024-01-07T07:26:42;6.63;;;3.85;;
26822;SDS011;14852;51.910;8.878;2024-01-07T07:29:08;4.88;;;3.08;;
26822;SDS011;14852;51.910;8.878;2024-01-07T07:31:37;4.57;;;3.20;;
26822;SDS011;14852;51.910;8.878;2024-01-07T07:34:03;4.85;;;3.50;;
26822;SDS011;14852;51.910;8.878;2024-01-07T07:36:29;6.00;;;4.18;;
26822;SDS011;14852;51.910;8.878;2024-01-07T07:38:55;6.78;;;4.00;;
26822;SDS011;14852;51.910;8.878;2024-01-07T07:41:21;5.78;;;3.40;;
26822;SDS011;14852;51.910;8.878;2024-01-07T07:43:47;5.72;;;3.88;;
26822;SDS011;14852;51.910;8.878;2024-01-07T07:46:13;5.57;;;3.42;;
26822;SDS011;14852;51.910;8.878;2024-01-07T07:48:39;6.68;;;4.45;;
26822;SDS011;14852;51.910;8.878;2024-01-07T07:51:05;5.75;;;3.53;;
26822;SDS011;14852;51.910;8.878;2024-01-07T07:53:30;5.38;;;3.53;;
26822;SDS011;14852;51.910;8.878;2024-01-07T07:55:56;5.63;;;3.65;;
26822;SDS011;14852;51.910;8.878;2024-01-07T07:58:22;7.53;;;3.85;;
26822;SDS011;14852;51.910;8.878;2024-01-07T08:00:47;5.97;;;3.83;;
26822;SDS011;14852;51.910;8.878;2024-01-07T08:03:13;7.88;;;4.60;;
26822;SDS011;14852;51.910;8.878;2024-01-07T08:05:40;4.63;;;3.50;;
26822;SDS011;14852;51.910;8.878;2024-01-07T08:08:07;6.63;;;4.18;;
26822;SDS011;14852;51.910;8.878;2024-01-07T08:10:33;7.18;;;3.38;;
26822;SDS011;14852;51.910;8.878;2024-01-07T08:13:00;5.43;;;3.70;;
26822;SDS011;14852;51.910;8.878;2024-01-07T08:15:26;7.35;;;4.60;;
26822;SDS011;14852;51.910;8.878;2024-01-07T08:17:52;7.28;;;4.72;;
26822;SDS011;14852;51.910;8.878;2024-01-07T08:20:17;4.85;;;3.80;;
26822;SDS011;14852;51.910;8.878;2024-01-07T08:22:44;4.63;;;3.30;;
26822;SDS011;14852;51.910;8.878;2024-01-07T08:25:10;5.38;;;3.55;;
26822;SDS011;14852;51.910;8.878;2024-01-07T08:27:36;7.72;;;3.90;;
26822;SDS011;14852;51.910;8.878;2024-01-07T08:30:02;5.35;;;3.90;;
26822;SDS011;14852;51.910;8.878;2024-01-07T08:32:29;4.90;;;3.45;;
26822;SDS011;14852;51.910;8.878;2024-01-07T08:34:55;5.38;;;3.78;;
26822;SDS011;14852;51.910;8.878;2024-01-07T08:37:21;3.53;;;3.20;;
26822;SDS011;14852;51.910;8.878;2024-01-07T08:39:46;5.47;;;3.53;;
26822;SDS011;14852;51.910;8.878;2024-01-07T08:42:12;4.50;;;3.20;;
26822;SDS011;14852;51.910;8.878;2024-01-07T08:44:38;5.70;;;3.28;;
26822;SDS011;14852;51.910;8.878;2024-01-07T08:47:04;6.47;;;2.92;;
26822;SDS011;14852;51.910;8.878;2024-01-07T08:49:30;4.15;;;2.88;;
26822;SDS011;14852;51.910;8.878;2024-01-07T08:51:59;5.35;;;3.65;;
26822;SDS011;14852;51.910;8.878;2024-01-07T08:54:25;6.03;;;3.28;;
26822;SDS011;14852;51.910;8.878;2024-01-07T08:56:51;5.38;;;3.85;;
26822;SDS011;14852;51.910;8.878;2024-01-07T08:59:17;4.30;;;3.05;;
26822;SDS011;14852;51.910;8.878;2024-01-07T09:01:43;6.60;;;3.70;;
26822;SDS011;14852;51.910;8.878;2024-01-07T09:04:08;6.35;;;4.15;;
26822;SDS011;14852;51.910;8.878;2024-01-07T09:06:34;4.78;;;3.05;;
26822;SDS011;14852;51.910;8.878;2024-01-07T09:09:00;4.72;;;3.13;;
26822;SDS011;14852;51.910;8.878;2024-01-07T09:11:28;3.88;;;3.35;;
26822;SDS011;14852;51.910;8.878;2024-01-07T09:13:54;4.72;;;2.92;;
26822;SDS011;14852;51.910;8.878;2024-01-07T09:16:20;4.35;;;2.88;;
26822;SDS011;14852;51.910;8.878;2024-01-07T09:18:45;5.47;;;3.10;;
26822;SDS011;14852;51.910;8.878;2024-01-07T09:21:11;5.28;;;3.42;;
26822;SDS011;14852;51.910;8.878;2024-01-07T09:23:37;4.68;;;2.65;;
26822;SDS011;14852;51.910;8.878;2024-01-07T09:26:03;8.88;;;3.22;;
26822;SDS011;14852;51.910;8.878;2024-01-07T09:28:29;5.20;;;3.50;;
26822;SDS011;14852;51.910;8.878;2024-01-07T09:30:54;7.00;;;3.33;;
26822;SDS011;14852;51.910;8.878;2024-01-07T09:33:20;6.65;;;3.28;;
26822;SDS011;14852;51.910;8.878;2024-01-07T09:35:48;10.48;;;2.65;;
26822;SDS011;14852;51.910;8.878;2024-01-07T09:38:19;4.13;;;2.65;;
26822;SDS011;14852;51.910;8.878;2024-01-07T09:40:45;5.82;;;3.08;;
26822;SDS011;14852;51.910;8.878;2024-01-07T09:43:11;4.30;;;2.95;;
26822;SDS011;14852;51.910;8.878;2024-01-07T09:45:38;4.20;;;2.90;;
26822;SDS011;14852;51.910;8.878;2024-01-07T09:48:06;2.95;;;2.63;;
26822;SDS011;14852;51.910;8.878;2024-01-07T09:50:32;4.15;;;2.88;;
26822;SDS011;14852;51.910;8.878;2024-01-07T09:52:57;6.57;;;2.67;;
26822;SDS011;14852;51.910;8.878;2024-01-07T09:55:29;3.88;;;2.85;;
26822;SDS011;14852;51.910;8.878;2024-01-07T09:58:02;5.10;;;3.10;;
26822;SDS011;14852;51.910;8.878;2024-01-07T10:00:28;3.30;;;2.30;;
26822;SDS011;14852;51.910;8.878;2024-01-07T10:02:55;2.95;;;2.47;;
26822;SDS011;14852;51.910;8.878;2024-01-07T10:05:21;6.78;;;2.83;;
26822;SDS011;14852;51.910;8.878;2024-01-07T10:07:47;4.13;;;3.17;;
26822;SDS011;14852;51.910;8.878;2024-01-07T10:10:13;3.90;;;2.28;;
26822;SDS011;14852;51.910;8.878;2024-01-07T10:12:40;3.80;;;2.75;;
26822;SDS011;14852;51.910;8.878;2024-01-07T10:15:06;5.20;;;3.08;;
26822;SDS011;14852;51.910;8.878;2024-01-07T10:17:32;3.15;;;2.10;;
26822;SDS011;14852;51.910;8.878;2024-01-07T10:19:58;4.03;;;3.15;;
26822;SDS011;14852;51.910;8.878;2024-01-07T10:22:26;4.90;;;2.60;;
26822;SDS011;14852;51.910;8.878;2024-01-07T10:24:52;3.17;;;2.65;;
26822;SDS011;14852;51.910;8.878;2024-01-07T10:27:18;4.75;;;2.03;;
26822;SDS011;14852;51.910;8.878;2024-01-07T10:29:43;4.05;;;2.50;;
26822;SDS011;14852;51.910;8.878;2024-01-07T10:32:15;6.00;;;2.90;;
26822;SDS011;14852;51.910;8.878;2024-01-07T10:34:44;5.22;;;2.92;;
26822;SDS011;14852;51.910;8.878;2024-01-07T10:37:15;8.18;;;5.25;;
26822;SDS011;14852;51.910;8.878;2024-01-07T10:39:40;4.50;;;3.08;;
26822;SDS011;14852;51.910;8.878;2024-01-07T10:42:06;3.75;;;2.65;;
26822;SDS011;14852;51.910;8.878;2024-01-07T10:44:34;3.88;;;2.85;;
26822;SDS011;14852;51.910;8.878;2024-01-07T10:47:00;3.97;;;2.70;;
26822;SDS011;14852;51.910;8.878;2024-01-07T10:49:32;4.25;;;3.40;;
26822;SDS011;14852;51.910;8.878;2024-01-07T10:52:06;4.28;;;2.63;;
26822;SDS011;14852;51.910;8.878;2024-01-07T10:54:36;4.18;;;2.72;;
26822;SDS011;14852;51.910;8.878;2024-01-07T10:57:07;5.03;;;3.72;;
26822;SDS011;14852;51.910;8.878;2024-01-07T10:59:56;4.93;;;2.47;;
26822;SDS011;14852;51.910;8.878;2024-01-07T11:02:24;3.58;;;2.67;;
26822;SDS011;14852;51.910;8.878;2024-01-07T11:05:01;2.40;;;2.20;;
26822;SDS011;14852;51.910;8.878;2024-01-07T11:07:40;4.85;;;2.40;;
26822;SDS011;14852;51.910;8.878;2024-01-07T11:10:20;5.28;;;3.78;;
26822;SDS011;14852;51.910;8.878;2024-01-07T11:12:56;3.67;;;2.63;;
26822;SDS011;14852;51.910;8.878;2024-01-07T11:18:21;3.38;;;2.60;;
26822;SDS011;14852;51.910;8.878;2024-01-07T11:20:48;2.72;;;2.20;;
26822;SDS011;14852;51.910;8.878;2024-01-07T11:23:25;2.63;;;2.15;;
26822;SDS011;14852;51.910;8.878;2024-01-07T11:26:03;3.50;;;2.65;;
26822;SDS011;14852;51.910;8.878;2024-01-07T11:28:45;5.40;;;2.92;;
26822;SDS011;14852;51.910;8.878;2024-01-07T11:34:04;5.32;;;2.75;;
26822;SDS011;14852;51.910;8.878;2024-01-07T11:36:30;3.05;;;2.25;;
26822;SDS011;14852;51.910;8.878;2024-01-07T11:38:56;3.05;;;2.00;;
26822;SDS011;14852;51.910;8.878;2024-01-07T11:41:22;4.65;;;2.83;;
26822;SDS011;14852;51.910;8.878;2024-01-07T11:43:57;2.50;;;1.98;;
26822;SDS011;14852;51.910;8.878;2024-01-07T11:46:28;3.30;;;2.25;;
26822;SDS011;14852;51.910;8.878;2024-01-07T11:48:57;6.55;;;3.15;;
26822;SDS011;14852;51.910;8.878;2024-01-07T11:51:24;3.25;;;2.50;;
26822;SDS011;14852;51.910;8.878;2024-01-07T11:54:00;4.93;;;3.17;;
26822;SDS011;14852;51.910;8.878;2024-01-07T11:56:29;5.05;;;3.03;;
26822;SDS011;14852;51.910;8.878;2024-01-07T11:58:55;5.00;;;3.10;;
26822;SDS011;14852;51.910;8.878;2024-01-07T12:01:21;3.50;;;2.72;;
26822;SDS011;14852;51.910;8.878;2024-01-07T12:03:47;4.15;;;2.85;;
26822;SDS011;14852;51.910;8.878;2024-01-07T12:06:16;4.57;;;2.90;;
26822;SDS011;14852;51.910;8.878;2024-01-07T12:08:44;3.80;;;2.88;;
26822;SDS011;14852;51.910;8.878;2024-01-07T12:11:14;3.10;;;2.50;;
26822;SDS011;14852;51.910;8.878;2024-01-07T12:13:41;4.45;;;3.05;;
26822;SDS011;14852;51.910;8.878;2024-01-07T12:16:08;5.53;;;3.45;;
26822;SDS011;14852;51.910;8.878;2024-01-07T12:18:38;4.32;;;3.22;;
26822;SDS011;14852;51.910;8.878;2024-01-07T12:21:04;4.85;;;3.90;;
26822;SDS011;14852;51.910;8.878;2024-01-07T12:23:34;6.13;;;3.88;;
26822;SDS011;14852;51.910;8.878;2024-01-07T12:26:08;6.45;;;3.63;;
26822;SDS011;14852;51.910;8.878;2024-01-07T12:28:37;4.40;;;3.15;;
26822;SDS011;14852;51.910;8.878;2024-01-07T12:31:04;7.18;;;3.50;;
26822;SDS011;14852;51.910;8.878;2024-01-07T12:33:31;4.28;;;2.88;;
26822;SDS011;14852;51.910;8.878;2024-01-07T12:35:58;3.63;;;2.60;;
26822;SDS011;14852;51.910;8.878;2024-01-07T12:38:25;4.43;;;3.55;;
26822;SDS011;14852;51.910;8.878;2024-01-07T12:40:52;4.22;;;2.50;;
26822;SDS011;14852;51.910;8.878;2024-01-07T12:43:37;4.38;;;2.72;;
26822;SDS011;14852;51.910;8.878;2024-01-07T12:46:03;3.05;;;2.30;;
26822;SDS011;14852;51.910;8.878;2024-01-07T12:48:30;4.10;;;2.72;;
26822;SDS011;14852;51.910;8.878;2024-01-07T12:54:12;3.83;;;2.53;;
26822;SDS011;14852;51.910;8.878;2024-01-07T12:56:38;4.40;;;3.03;;
26822;SDS011;14852;51.910;8.878;2024-01-07T12:59:04;13.27;;;3.50;;
26822;SDS011;14852;51.910;8.878;2024-01-07T13:01:31;4.40;;;3.13;;
26822;SDS011;14852;51.910;8.878;2024-01-07T13:07:12;4.72;;;3.42;;
26822;SDS011;14852;51.910;8.878;2024-01-07T13:09:38;3.17;;;2.58;;
26822;SDS011;14852;51.910;8.878;2024-01-07T13:12:04;4.75;;;2.63;;
26822;SDS011;14852;51.910;8.878;2024-01-07T13:14:30;2.88;;;2.33;;
26822;SDS011;14852;51.910;8.878;2024-01-07T13:16:56;3.40;;;2.60;;
26822;SDS011;14852;51.910;8.878;2024-01-07T13:19:21;4.75;;;2.60;;
26822;SDS011;14852;51.910;8.878;2024-01-07T13:21:47;6.50;;;2.90;;
26822;SDS011;14852;51.910;8.878;2024-01-07T13:24:13;4.10;;;2.75;;
26822;SDS011;14852;51.910;8.878;2024-01-07T13:26:39;5.20;;;3.35;;
26822;SDS011;14852;51.910;8.878;2024-01-07T13:29:07;3.13;;;2.40;;
26822;SDS011;14852;51.910;8.878;2024-01-07T13:31:32;3.60;;;2.47;;
26822;SDS011;14852;51.910;8.878;2024-01-07T13:33:58;3.80;;;2.45;;
26822;SDS011;14852;51.910;8.878;2024-01-07T13:36:24;3.53;;;2.40;;
26822;SDS011;14852;51.910;8.878;2024-01-07T13:38:49;3.80;;;2.45;;
26822;SDS011;14852;51.910;8.878;2024-01-07T13:41:16;5.45;;;3.53;;
26822;SDS011;14852;51.910;8.878;2024-01-07T13:43:42;4.40;;;2.35;;
26822;SDS011;14852;51.910;8.878;2024-01-07T13:46:08;3.30;;;2.28;;
26822;SDS011;14852;51.910;8.878;2024-01-07T13:48:34;5.82;;;3.15;;
26822;SDS011;14852;51.910;8.878;2024-01-07T13:51:00;3.33;;;2.45;;
26822;SDS011;14852;51.910;8.878;2024-01-07T13:53:27;3.92;;;2.72;;
26822;SDS011;14852;51.910;8.878;2024-01-07T13:55:54;3.55;;;2.50;;
26822;SDS011;14852;51.910;8.878;2024-01-07T13:58:21;4.38;;;2.47;;
26822;SDS011;14852;51.910;8.878;2024-01-07T14:00:48;3.20;;;2.35;;
26822;SDS011;14852;51.910;8.878;2024-01-07T14:03:16;5.57;;;2.60;;
26822;SDS011;14852;51.910;8.878;2024-01-07T14:06:01;3.92;;;2.47;;
26822;SDS011;14852;51.910;8.878;2024-01-07T14:08:26;4.03;;;2.55;;
26822;SDS011;14852;51.910;8.878;2024-01-07T14:10:52;4.43;;;2.65;;
26822;SDS011;14852;51.910;8.878;2024-01-07T14:13:18;3.45;;;2.47;;
26822;SDS011;14852;51.910;8.878;2024-01-07T14:15:44;3.88;;;2.60;;
26822;SDS011;14852;51.910;8.878;2024-01-07T14:18:09;4.03;;;2.83;;
26822;SDS011;14852;51.910;8.878;2024-01-07T14:20:40;3.10;;;2.50;;
26822;SDS011;14852;51.910;8.878;2024-01-07T14:23:05;3.92;;;2.58;;
26822;SDS011;14852;51.910;8.878;2024-01-07T14:25:31;4.75;;;2.42;;
26822;SDS011;14852;51.910;8.878;2024-01-07T14:27:57;3.58;;;2.53;;
26822;SDS011;14852;51.910;8.878;2024-01-07T14:33:35;3.28;;;2.58;;
26822;SDS011;14852;51.910;8.878;2024-01-07T14:36:02;4.18;;;2.53;;
26822;SDS011;14852;51.910;8.878;2024-01-07T14:38:29;5.07;;;2.92;;
26822;SDS011;14852;51.910;8.878;2024-01-07T14:40:55;4.97;;;2.42;;
26822;SDS011;14852;51.910;8.878;2024-01-07T14:43:21;3.72;;;2.55;;
26822;SDS011;14852;51.910;8.878;2024-01-07T14:45:48;7.40;;;3.38;;
26822;SDS011;14852;51.910;8.878;2024-01-07T14:48:13;10.57;;;4.90;;
26822;SDS011;14852;51.910;8.878;2024-01-07T14:50:39;11.40;;;6.35;;
26822;SDS011;14852;51.910;8.878;2024-01-07T14:53:05;6.22;;;3.08;;
26822;SDS011;14852;51.910;8.878;2024-01-07T14:55:31;3.58;;;2.55;;
26822;SDS011;14852;51.910;8.878;2024-01-07T14:57:57;3.22;;;2.42;;
26822;SDS011;14852;51.910;8.878;2024-01-07T15:00:23;6.53;;;2.72;;
26822;SDS011;14852;51.910;8.878;2024-01-07T15:02:49;4.05;;;2.40;;
26822;SDS011;14852;51.910;8.878;2024-01-07T15:05:16;3.33;;;2.58;;
26822;SDS011;14852;51.910;8.878;2024-01-07T15:07:41;4.55;;;2.60;;
26822;SDS011;14852;51.910;8.878;2024-01-07T15:10:09;2.83;;;2.13;;
26822;SDS011;14852;51.910;8.878;2024-01-07T15:38:50;4.70;;;2.83;;
26822;SDS011;14852;51.910;8.878;2024-01-07T15:41:21;3.60;;;2.10;;
26822;SDS011;14852;51.910;8.878;2024-01-07T15:43:47;3.25;;;2.08;;
26822;SDS011;14852;51.910;8.878;2024-01-07T15:46:13;3.17;;;2.30;;
26822;SDS011;14852;51.910;8.878;2024-01-07T15:48:38;4.82;;;3.08;;
26822;SDS011;14852;51.910;8.878;2024-01-07T15:51:04;6.05;;;2.50;;
26822;SDS011;14852;51.910;8.878;2024-01-07T15:53:30;3.80;;;2.10;;
26822;SDS011;14852;51.910;8.878;2024-01-07T15:56:02;5.72;;;2.60;;
26822;SDS011;14852;51.910;8.878;2024-01-07T15:58:31;2.60;;;2.10;;
26822;SDS011;14852;51.910;8.878;2024-01-07T16:01:02;3.40;;;2.10;;
26822;SDS011;14852;51.910;8.878;2024-01-07T16:03:29;3.42;;;1.80;;
26822;SDS011;14852;51.910;8.878;2024-01-07T16:05:56;3.03;;;2.50;;
26822;SDS011;14852;51.910;8.878;2024-01-07T16:08:22;3.15;;;2.20;;
26822;SDS011;14852;51.910;8.878;2024-01-07T16:10:56;3.17;;;2.30;;
26822;SDS011;14852;51.910;8.878;2024-01-07T16:13:23;3.47;;;2.53;;
26822;SDS011;14852;51.910;8.878;2024-01-07T16:15:55;2.53;;;1.60;;
26822;SDS011;14852;51.910;8.878;2024-01-07T16:18:21;2.80;;;1.80;;
26822;SDS011;14852;51.910;8.878;2024-01-07T16:20:46;3.10;;;1.98;;
26822;SDS011;14852;51.910;8.878;2024-01-07T16:23:12;5.07;;;2.80;;
26822;SDS011;14852;51.910;8.878;2024-01-07T16:25:38;2.28;;;1.80;;
26822;SDS011;14852;51.910;8.878;2024-01-07T16:28:04;6.30;;;2.20;;
26822;SDS011;14852;51.910;8.878;2024-01-07T16:30:31;2.30;;;1.80;;
26822;SDS011;14852;51.910;8.878;2024-01-07T16:32:58;3.60;;;2.35;;
26822;SDS011;14852;51.910;8.878;2024-01-07T16:35:24;2.78;;;2.15;;
26822;SDS011;14852;51.910;8.878;2024-01-07T16:37:51;3.40;;;2.10;;
26822;SDS011;14852;51.910;8.878;2024-01-07T16:40:16;3.17;;;1.88;;
26822;SDS011;14852;51.910;8.878;2024-01-07T16:42:42;3.63;;;2.28;;
26822;SDS011;14852;51.910;8.878;2024-01-07T16:45:08;2.70;;;2.13;;
26822;SDS011;14852;51.910;8.878;2024-01-07T16:47:34;3.38;;;2.30;;
26822;SDS011;14852;51.910;8.878;2024-01-07T16:50:00;6.07;;;2.35;;
26822;SDS011;14852;51.910;8.878;2024-01-07T16:52:27;2.72;;;1.85;;
26822;SDS011;14852;51.910;8.878;2024-01-07T16:54:53;3.50;;;2.08;;
26822;SDS011;14852;51.910;8.878;2024-01-07T16:57:19;2.80;;;1.90;;